Time;durP1;ratioP1;P1;durP2;ratioP2;P2;SDS_P1;SDS_P2;PMS_P1;PMS_P2;Temp;Humidity;BMP_temperature;BMP_pressure;BME280_temperature;BME280_humidity;BME280_pressure;Samples;Min_cycle;Max_cycle;Signal;HPM_P1;HPM_P2
2023/06/17 00:00:30;;;;;;;5.57;4.03;;;23.50;96.70;;;;;;4888900;29;20415;-70
2023/06/17 00:02:58;;;;;;;4.43;4.03;;;23.40;96.70;;;;;;4881500;29;20131;-71
2023/06/17 00:05:28;;;;;;;4.72;4.30;;;23.30;96.70;;;;;;4880564;29;20061;-71
2023/06/17 00:07:56;;;;;;;5.95;4.45;;;23.30;96.70;;;;;;4887511;29;20131;-71
2023/06/17 00:10:24;;;;;;;4.88;3.85;;;23.30;96.70;;;;;;4868426;29;20108;-71
2023/06/17 00:12:52;;;;;;;4.32;3.78;;;23.20;96.70;;;;;;4878833;29;20638;-71
2023/06/17 00:15:22;;;;;;;4.90;4.03;;;23.10;96.70;;;;;;4887096;29;20055;-71
2023/06/17 00:17:50;;;;;;;6.95;4.18;;;23.10;96.70;;;;;;4887861;29;20136;-71
2023/06/17 00:20:18;;;;;;;5.05;3.88;;;23.00;96.70;;;;;;4902761;29;20151;-71
2023/06/17 00:22:48;;;;;;;4.55;3.63;;;23.00;96.70;;;;;;4888191;29;20045;-71
2023/06/17 00:25:16;;;;;;;6.32;4.05;;;23.00;96.70;;;;;;4886038;29;20040;-71
2023/06/17 00:27:44;;;;;;;5.45;4.35;;;23.00;96.70;;;;;;4885122;29;20040;-71
2023/06/17 00:30:13;;;;;;;6.10;3.78;;;23.10;96.70;;;;;;4887432;29;20060;-71
2023/06/17 00:32:41;;;;;;;4.65;3.78;;;23.00;96.70;;;;;;4887225;29;20048;-70
2023/06/17 00:35:10;;;;;;;4.80;3.78;;;23.10;96.70;;;;;;4887486;29;20052;-70
2023/06/17 00:37:38;;;;;;;4.57;3.70;;;23.20;96.70;;;;;;4888484;29;20511;-70
2023/06/17 00:40:10;;;;;;;4.38;3.97;;;23.10;96.70;;;;;;4887473;29;20040;-70
2023/06/17 00:42:39;;;;;;;5.72;3.97;;;23.00;96.70;;;;;;4883159;29;20143;-70
2023/06/17 00:45:08;;;;;;;5.80;3.85;;;22.90;96.70;;;;;;4886473;29;21385;-70
2023/06/17 00:47:37;;;;;;;4.32;3.75;;;23.00;96.70;;;;;;4886351;29;20119;-70
2023/06/17 00:50:09;;;;;;;5.35;4.10;;;23.00;96.70;;;;;;4885426;29;20503;-70
2023/06/17 00:52:39;;;;;;;5.20;3.78;;;23.00;96.70;;;;;;4890683;29;20506;-70
2023/06/17 00:55:12;;;;;;;4.53;3.25;;;22.80;96.70;;;;;;4886137;29;20048;-70
2023/06/17 00:57:40;;;;;;;5.88;3.70;;;22.70;96.70;;;;;;4890067;29;20061;-70
2023/06/17 01:00:10;;;;;;;6.47;3.65;;;22.60;96.70;;;;;;4885869;29;20132;-70
2023/06/17 01:02:42;;;;;;;4.82;3.47;;;22.50;96.70;;;;;;4888778;29;20052;-70
2023/06/17 01:05:14;;;;;;;4.25;3.33;;;22.50;96.70;;;;;;4902488;29;20048;-70
2023/06/17 01:07:57;;;;;;;3.45;2.83;;;22.70;96.70;;;;;;4883499;29;20143;-70
2023/06/17 01:10:49;;;;;;;2.90;2.60;;;22.60;96.70;;;;;;4887829;29;20171;-70
2023/06/17 01:13:18;;;;;;;5.38;2.80;;;22.50;96.70;;;;;;4901788;29;20124;-70
2023/06/17 01:15:47;;;;;;;4.20;2.83;;;22.60;96.70;;;;;;4899929;29;20403;-70
2023/06/17 01:18:17;;;;;;;3.30;2.47;;;22.50;96.70;;;;;;4902043;29;20825;-70
2023/06/17 01:20:51;;;;;;;5.47;2.60;;;22.40;96.70;;;;;;4902229;29;20052;-70
2023/06/17 01:23:31;;;;;;;5.00;2.50;;;22.50;96.70;;;;;;4890533;29;20100;-70
2023/06/17 01:26:01;;;;;;;3.60;2.05;;;22.50;96.70;;;;;;4887913;29;20067;-70
2023/06/17 01:28:30;;;;;;;2.53;2.15;;;22.40;96.70;;;;;;4903359;29;20107;-70
2023/06/17 01:30:59;;;;;;;4.50;2.10;;;22.30;96.70;;;;;;4898929;29;20105;-70
2023/06/17 01:33:27;;;;;;;2.30;1.80;;;22.20;96.70;;;;;;4886013;29;20072;-70
2023/06/17 01:36:00;;;;;;;2.00;1.80;;;22.20;96.70;;;;;;4884834;29;20202;-70
2023/06/17 01:38:33;;;;;;;1.80;1.63;;;22.20;96.70;;;;;;4902532;29;20060;-70
2023/06/17 01:41:06;;;;;;;2.45;1.80;;;22.20;96.70;;;;;;4888286;29;20071;-70
2023/06/17 01:43:36;;;;;;;3.85;2.13;;;22.30;96.70;;;;;;4902807;29;20064;-70
2023/06/17 01:46:06;;;;;;;3.10;1.88;;;22.40;96.70;;;;;;4903951;29;20140;-70
2023/06/17 01:48:36;;;;;;;2.58;1.60;;;22.50;96.70;;;;;;4894526;29;20052;-70
2023/06/17 01:51:13;;;;;;;4.72;2.20;;;22.50;96.70;;;;;;4889191;29;20411;-70
2023/06/17 01:53:41;;;;;;;5.05;1.92;;;22.50;96.70;;;;;;4889859;29;20048;-70
2023/06/17 01:56:11;;;;;;;3.28;2.08;;;22.60;96.70;;;;;;4889830;29;20072;-70
2023/06/17 01:58:40;;;;;;;2.40;2.00;;;22.60;96.70;;;;;;4906060;29;20143;-70
2023/06/17 02:01:08;;;;;;;2.00;1.70;;;22.50;96.70;;;;;;4892997;29;20040;-70
2023/06/17 02:03:37;;;;;;;2.38;1.77;;;22.50;96.70;;;;;;4903947;29;20103;-70
2023/06/17 02:06:05;;;;;;;3.35;1.67;;;22.60;96.70;;;;;;4889796;29;20044;-70
2023/06/17 02:08:34;;;;;;;3.78;2.10;;;22.60;96.70;;;;;;4901336;29;20067;-70
2023/06/17 02:11:02;;;;;;;3.42;2.13;;;22.60;96.70;;;;;;4888372;29;20123;-70
2023/06/17 02:13:32;;;;;;;2.45;1.80;;;22.60;96.70;;;;;;4886915;29;20052;-70
2023/06/17 02:16:00;;;;;;;3.22;1.90;;;22.40;96.70;;;;;;4892965;29;20085;-70
2023/06/17 02:18:28;;;;;;;3.30;2.20;;;22.40;96.70;;;;;;4907395;29;20254;-70
2023/06/17 02:20:56;;;;;;;3.95;1.90;;;22.40;96.70;;;;;;4889255;29;20040;-71
2023/06/17 02:23:25;;;;;;;3.25;2.25;;;22.40;96.70;;;;;;4905226;29;20080;-70
2023/06/17 02:25:57;;;;;;;3.88;2.33;;;22.30;96.70;;;;;;4890587;29;20128;-70
2023/06/17 02:28:25;;;;;;;2.13;1.70;;;22.20;96.70;;;;;;4904422;29;20036;-71
2023/06/17 02:30:55;;;;;;;3.63;1.95;;;22.10;96.70;;;;;;4904984;29;20040;-70
2023/06/17 02:33:23;;;;;;;3.40;2.10;;;22.10;96.70;;;;;;4888415;29;20052;-70
2023/06/17 02:35:51;;;;;;;2.63;1.83;;;22.20;96.70;;;;;;4873267;29;20036;-70
2023/06/17 02:38:20;;;;;;;2.33;1.92;;;22.20;96.70;;;;;;4904426;29;20076;-70
2023/06/17 02:40:48;;;;;;;2.35;1.90;;;22.10;96.70;;;;;;4888870;29;20343;-70
2023/06/17 02:43:16;;;;;;;4.97;1.88;;;22.20;96.70;;;;;;4888990;29;20059;-70
2023/06/17 02:45:44;;;;;;;4.20;2.45;;;22.20;96.70;;;;;;4902471;29;20056;-70
2023/06/17 02:48:14;;;;;;;2.90;1.98;;;22.10;96.70;;;;;;4887593;29;20040;-70
2023/06/17 02:50:42;;;;;;;1.70;1.58;;;21.80;96.70;;;;;;4903548;29;20044;-70
2023/06/17 02:53:10;;;;;;;3.25;2.00;;;21.70;96.70;;;;;;4902508;29;20060;-70
2023/06/17 02:55:45;;;;;;;3.00;2.28;;;21.80;96.70;;;;;;4901208;29;20076;-71
2023/06/17 02:58:19;;;;;;;3.10;1.90;;;21.90;96.70;;;;;;4903659;29;20049;-70
2023/06/17 03:00:53;;;;;;;3.53;2.10;;;21.70;96.70;;;;;;4903740;29;20939;-70
2023/06/17 03:03:34;;;;;;;4.28;2.25;;;21.70;96.70;;;;;;4887775;29;20769;-70
2023/06/17 03:06:07;;;;;;;2.42;2.22;;;21.70;96.70;;;;;;4869907;29;20071;-70
2023/06/17 03:08:40;;;;;;;2.70;1.75;;;21.60;96.70;;;;;;4886714;29;20044;-70
2023/06/17 03:11:09;;;;;;;3.45;2.28;;;21.20;96.70;;;;;;4903303;29;20135;-70
2023/06/17 03:13:40;;;;;;;3.13;2.47;;;21.00;96.70;;;;;;4904755;29;20048;-70
2023/06/17 03:16:17;;;;;;;5.85;2.33;;;20.90;96.70;;;;;;4889230;29;20582;-70
2023/06/17 03:18:48;;;;;;;3.60;2.67;;;20.70;96.70;;;;;;4872308;29;20092;-70
2023/06/17 03:21:16;;;;;;;2.90;2.38;;;20.40;96.70;;;;;;4905792;29;20107;-70
2023/06/17 03:23:45;;;;;;;3.92;2.50;;;20.50;96.70;;;;;;4885828;29;20559;-70
2023/06/17 03:26:15;;;;;;;4.72;3.20;;;20.80;96.70;;;;;;4889171;29;20039;-70
2023/06/17 03:28:44;;;;;;;3.88;2.67;;;21.00;96.70;;;;;;4872394;29;20072;-70
2023/06/17 03:31:18;;;;;;;3.30;2.50;;;21.10;96.70;;;;;;4888276;29;20048;-70
2023/06/17 03:33:56;;;;;;;3.00;2.30;;;21.20;96.70;;;;;;4906443;29;20794;-70
2023/06/17 03:36:24;;;;;;;3.15;2.30;;;21.30;96.70;;;;;;4885284;29;20044;-70
2023/06/17 03:38:54;;;;;;;4.22;2.55;;;21.30;96.70;;;;;;4887281;29;20479;-69
2023/06/17 03:41:23;;;;;;;3.55;2.40;;;21.30;96.70;;;;;;4873752;29;20084;-69
2023/06/17 03:43:52;;;;;;;3.03;2.63;;;21.50;96.70;;;;;;4887920;29;20618;-69
2023/06/17 03:46:22;;;;;;;2.75;2.53;;;21.50;96.70;;;;;;4888666;29;20048;-69
2023/06/17 03:48:53;;;;;;;2.83;2.53;;;21.40;96.70;;;;;;4900990;29;20063;-69
2023/06/17 03:51:22;;;;;;;4.25;2.83;;;21.40;96.70;;;;;;4904056;29;20068;-69
2023/06/17 03:53:50;;;;;;;2.53;2.30;;;21.10;96.70;;;;;;4889094;29;20567;-69
2023/06/17 03:56:18;;;;;;;3.65;2.67;;;21.30;96.70;;;;;;4888003;29;20570;-69
2023/06/17 03:58:49;;;;;;;3.72;2.10;;;21.40;96.70;;;;;;4887821;29;20506;-69
2023/06/17 04:01:17;;;;;;;3.47;2.50;;;21.50;96.70;;;;;;4888710;29;20489;-69
2023/06/17 04:03:46;;;;;;;2.72;2.15;;;21.50;96.70;;;;;;4888429;29;21637;-69
2023/06/17 04:06:16;;;;;;;2.85;2.47;;;21.20;96.70;;;;;;4887986;29;20444;-68
2023/06/17 04:08:46;;;;;;;2.80;2.50;;;20.90;96.70;;;;;;4888017;29;20063;-69
2023/06/17 04:11:16;;;;;;;3.33;2.67;;;20.90;96.70;;;;;;4902449;29;20048;-69
2023/06/17 04:13:44;;;;;;;5.25;3.95;;;21.20;96.70;;;;;;4887813;29;21362;-69
2023/06/17 04:16:15;;;;;;;5.75;4.53;;;21.30;96.70;;;;;;4888947;29;20054;-69
2023/06/17 04:18:43;;;;;;;6.35;4.28;;;21.30;96.70;;;;;;4871036;29;20052;-69
2023/06/17 04:21:11;;;;;;;4.47;3.60;;;21.40;96.70;;;;;;4890003;29;20103;-70
2023/06/17 04:23:42;;;;;;;4.85;3.70;;;21.40;96.70;;;;;;4886180;29;20059;-69
2023/06/17 04:26:13;;;;;;;3.65;2.85;;;21.40;96.70;;;;;;4885270;29;20349;-69
2023/06/17 04:28:42;;;;;;;5.85;2.72;;;21.40;96.70;;;;;;4886624;29;20562;-69
2023/06/17 04:31:15;;;;;;;5.28;2.88;;;21.30;96.70;;;;;;4887689;29;20553;-69
2023/06/17 04:34:00;;;;;;;4.18;2.72;;;21.20;96.70;;;;;;4886668;29;20048;-69
2023/06/17 04:36:29;;;;;;;4.20;2.70;;;21.30;96.70;;;;;;4889997;29;20051;-69
2023/06/17 04:38:59;;;;;;;4.22;2.88;;;21.30;96.70;;;;;;4899883;29;20045;-69
2023/06/17 04:41:32;;;;;;;3.38;2.58;;;21.20;96.70;;;;;;4899616;29;20084;-69
2023/06/17 04:44:01;;;;;;;2.38;2.15;;;21.10;96.70;;;;;;4885076;29;20108;-69
2023/06/17 04:46:29;;;;;;;4.53;2.75;;;21.10;96.70;;;;;;4885969;29;20039;-69
2023/06/17 04:48:58;;;;;;;5.05;2.72;;;21.20;96.70;;;;;;4886536;29;20167;-69
2023/06/17 04:51:28;;;;;;;4.28;2.50;;;21.30;96.70;;;;;;4901441;29;21971;-69
2023/06/17 04:54:07;;;;;;;3.13;2.40;;;21.40;96.70;;;;;;4884709;29;20052;-70
2023/06/17 04:56:36;;;;;;;2.67;2.47;;;21.40;96.70;;;;;;4887434;29;20139;-68
2023/06/17 04:59:05;;;;;;;2.63;2.20;;;21.30;96.70;;;;;;4885946;29;20052;-69
2023/06/17 05:01:35;;;;;;;3.65;2.60;;;21.30;96.70;;;;;;4902083;29;20048;-69
2023/06/17 05:04:05;;;;;;;3.72;2.35;;;21.50;96.70;;;;;;4899108;29;20044;-69
2023/06/17 05:06:33;;;;;;;4.15;2.28;;;21.50;96.70;;;;;;4886427;29;20124;-69
2023/06/17 05:09:03;;;;;;;3.88;2.20;;;21.60;96.70;;;;;;4902608;29;20388;-69
2023/06/17 05:11:37;;;;;;;3.00;1.95;;;21.70;96.70;;;;;;4890688;29;20044;-69
2023/06/17 05:14:05;;;;;;;3.88;2.08;;;21.70;96.70;;;;;;4886404;29;20451;-69
2023/06/17 05:16:34;;;;;;;4.75;2.92;;;21.70;96.70;;;;;;4872519;29;20143;-69
2023/06/17 05:19:03;;;;;;;5.95;2.80;;;21.70;96.70;;;;;;4867736;29;20052;-69
2023/06/17 05:21:31;;;;;;;2.97;2.53;;;21.70;96.70;;;;;;4889280;29;20044;-69
2023/06/17 05:24:00;;;;;;;2.78;2.50;;;21.60;96.70;;;;;;4900578;29;20056;-69
2023/06/17 05:26:31;;;;;;;3.65;2.53;;;21.70;96.70;;;;;;4901363;29;20207;-70
2023/06/17 05:29:01;;;;;;;4.95;2.78;;;21.80;96.70;;;;;;4892140;29;20040;-69
2023/06/17 05:31:30;;;;;;;4.60;2.75;;;21.80;96.70;;;;;;4909337;29;20052;-69
2023/06/17 05:33:59;;;;;;;6.35;2.42;;;21.90;96.70;;;;;;4879715;29;20128;-69
2023/06/17 05:36:27;;;;;;;3.08;2.15;;;21.90;96.70;;;;;;4901984;29;20048;-72
2023/06/17 05:38:55;;;;;;;2.63;2.40;;;21.70;96.70;;;;;;4887063;29;20795;-70
2023/06/17 05:41:24;;;;;;;5.88;2.45;;;21.70;96.70;;;;;;4885835;29;20057;-70
2023/06/17 05:43:54;;;;;;;3.08;2.50;;;21.80;96.70;;;;;;4888802;29;20141;-69
2023/06/17 05:46:24;;;;;;;3.17;2.72;;;21.70;96.70;;;;;;4902077;29;20045;-69
2023/06/17 05:48:53;;;;;;;2.58;2.10;;;21.70;96.70;;;;;;4901535;29;20388;-69
2023/06/17 05:51:23;;;;;;;3.15;2.33;;;21.80;96.70;;;;;;4887815;29;20484;-71
2023/06/17 05:53:55;;;;;;;4.07;3.03;;;21.90;96.70;;;;;;4902158;29;20139;-69
2023/06/17 05:56:23;;;;;;;4.22;2.70;;;22.00;96.70;;;;;;4886192;29;20585;-69
2023/06/17 05:58:52;;;;;;;4.75;2.67;;;22.00;96.70;;;;;;4904178;29;20041;-70
2023/06/17 06:01:32;;;;;;;2.63;2.33;;;22.00;96.70;;;;;;4877841;29;20056;-69
2023/06/17 06:04:00;;;;;;;3.45;2.78;;;22.10;96.70;;;;;;4881426;29;20052;-71
2023/06/17 06:06:29;;;;;;;4.85;2.90;;;22.10;96.70;;;;;;4886842;29;20105;-72
2023/06/17 06:09:01;;;;;;;5.28;3.03;;;22.10;96.70;;;;;;4885553;29;20052;-73
2023/06/17 06:11:30;;;;;;;4.03;2.47;;;22.10;96.70;;;;;;4888122;29;20045;-74
2023/06/17 06:13:59;;;;;;;3.35;2.63;;;22.20;96.70;;;;;;4888170;29;20045;-73
2023/06/17 06:16:27;;;;;;;3.85;2.38;;;22.20;96.70;;;;;;4902083;29;20048;-73
2023/06/17 06:18:57;;;;;;;3.80;2.70;;;22.30;96.70;;;;;;4886362;29;20056;-71
2023/06/17 06:21:25;;;;;;;2.70;2.50;;;22.30;96.70;;;;;;4902217;29;20049;-73
2023/06/17 06:23:54;;;;;;;5.32;2.70;;;22.40;96.70;;;;;;4887612;29;20075;-75
2023/06/17 06:26:28;;;;;;;5.07;2.33;;;22.40;96.70;;;;;;4886604;29;20140;-71
2023/06/17 06:29:17;;;;;;;3.47;2.35;;;22.50;96.70;;;;;;4884716;29;20410;-70
2023/06/17 06:31:45;;;;;;;5.22;2.17;;;22.60;96.70;;;;;;4890124;29;20103;-70
2023/06/17 06:34:18;;;;;;;3.17;2.30;;;22.70;96.70;;;;;;4882655;29;20048;-70
2023/06/17 06:36:47;;;;;;;46.40;7.25;;;22.70;96.70;;;;;;4905607;29;20080;-70
2023/06/17 06:39:16;;;;;;;12.20;3.88;;;22.80;96.70;;;;;;4890640;29;20049;-70
2023/06/17 06:42:21;;;;;;;9.32;3.50;;;22.80;96.70;;;;;;4904605;29;20072;-70
2023/06/17 06:44:53;;;;;;;9.95;3.47;;;22.80;96.70;;;;;;4870635;29;20057;-71
2023/06/17 06:47:22;;;;;;;7.75;3.05;;;22.80;96.70;;;;;;4852099;29;20049;-72
2023/06/17 06:49:54;;;;;;;4.78;3.00;;;22.90;96.70;;;;;;4871780;29;20059;-71
2023/06/17 06:52:22;;;;;;;7.10;3.38;;;22.90;96.70;;;;;;4869653;29;20605;-70
2023/06/17 06:54:53;;;;;;;5.13;2.67;;;22.90;96.70;;;;;;4848881;29;20850;-70
2023/06/17 06:57:21;;;;;;;6.75;2.90;;;23.00;96.70;;;;;;4876864;29;20556;-70
2023/06/17 06:59:50;;;;;;;6.00;2.63;;;23.10;96.70;;;;;;4846054;29;20500;-70
2023/06/17 07:02:24;;;;;;;4.88;2.78;;;23.00;96.70;;;;;;4853376;29;20064;-70
2023/06/17 07:05:28;;;;;;;3.67;3.10;;;23.10;96.70;;;;;;4870255;29;20066;-70
2023/06/17 07:08:01;;;;;;;3.38;2.70;;;23.20;96.70;;;;;;4886042;29;20060;-71
2023/06/17 07:10:29;;;;;;;3.13;2.40;;;23.10;96.70;;;;;;4837932;29;20057;-70
2023/06/17 07:12:58;;;;;;;3.20;2.70;;;23.20;96.70;;;;;;4869153;29;20068;-70
2023/06/17 07:15:26;;;;;;;3.92;2.72;;;23.30;96.70;;;;;;4875793;29;20061;-70
2023/06/17 07:17:55;;;;;;;5.28;2.72;;;23.30;96.70;;;;;;4859283;29;20168;-69
2023/06/17 07:20:24;;;;;;;4.53;3.22;;;23.30;96.70;;;;;;4903922;29;20504;-69
2023/06/17 07:22:56;;;;;;;4.03;3.25;;;23.40;96.70;;;;;;4903795;29;20048;-69
2023/06/17 07:25:25;;;;;;;4.22;2.63;;;23.50;96.70;;;;;;4900235;29;20060;-70
2023/06/17 07:27:56;;;;;;;3.38;2.60;;;23.60;96.70;;;;;;4888023;29;20076;-69
2023/06/17 07:30:25;;;;;;;4.85;2.80;;;23.60;96.70;;;;;;4888485;29;20048;-69
2023/06/17 07:32:53;;;;;;;5.10;3.30;;;23.70;96.70;;;;;;4889739;29;20097;-69
2023/06/17 07:35:22;;;;;;;4.95;2.97;;;23.80;96.70;;;;;;4887727;29;20634;-70
2023/06/17 07:37:52;;;;;;;4.13;2.60;;;23.80;96.70;;;;;;4901182;29;20068;-69
2023/06/17 07:40:22;;;;;;;5.15;2.60;;;23.80;96.70;;;;;;4889878;29;20182;-71
2023/06/17 07:42:50;;;;;;;3.67;2.78;;;23.90;96.70;;;;;;4890014;29;20874;-70
2023/06/17 07:45:21;;;;;;;3.13;2.83;;;23.90;96.70;;;;;;4890020;29;20059;-69
2023/06/17 07:47:53;;;;;;;4.20;2.40;;;23.90;96.70;;;;;;4887282;29;20097;-69
2023/06/17 07:50:24;;;;;;;3.83;2.83;;;23.90;96.70;;;;;;4895901;29;20048;-71
2023/06/17 07:52:52;;;;;;;3.92;3.00;;;24.00;96.70;;;;;;4888205;29;20060;-69
2023/06/17 07:55:22;;;;;;;6.20;2.65;;;24.00;96.70;;;;;;4888408;29;20491;-70
2023/06/17 07:57:51;;;;;;;5.03;2.97;;;24.10;96.70;;;;;;4889322;29;20061;-69
2023/06/17 08:00:19;;;;;;;4.70;3.22;;;24.20;96.70;;;;;;4888986;29;20574;-70
2023/06/17 08:02:49;;;;;;;7.57;3.72;;;24.20;96.70;;;;;;4887648;29;20490;-70
2023/06/17 08:05:20;;;;;;;10.85;3.50;;;24.20;96.70;;;;;;4889155;29;20422;-69
2023/06/17 08:07:49;;;;;;;4.32;3.10;;;24.30;96.70;;;;;;4888978;29;20123;-71
2023/06/17 08:10:17;;;;;;;6.53;3.22;;;24.30;96.70;;;;;;4889664;29;20052;-71
2023/06/17 08:12:48;;;;;;;5.22;3.53;;;24.30;96.70;;;;;;4903476;29;20048;-71
2023/06/17 08:15:17;;;;;;;3.30;2.97;;;24.30;96.70;;;;;;4889346;29;20064;-72
2023/06/17 08:17:47;;;;;;;5.25;3.28;;;24.30;96.70;;;;;;4903202;29;20076;-71
2023/06/17 08:20:16;;;;;;;6.07;3.60;;;24.40;96.70;;;;;;4888711;29;20040;-69
2023/06/17 08:22:44;;;;;;;5.30;3.45;;;24.50;96.70;;;;;;4887636;29;20080;-69
2023/06/17 08:25:13;;;;;;;5.18;3.70;;;24.60;96.70;;;;;;4887403;29;20049;-69
2023/06/17 08:27:47;;;;;;;6.55;3.53;;;24.60;96.70;;;;;;4888218;29;20499;-69
2023/06/17 08:30:17;;;;;;;7.13;3.80;;;24.60;96.70;;;;;;4887016;29;20055;-71
2023/06/17 08:32:46;;;;;;;6.88;3.33;;;24.60;96.70;;;;;;4887434;29;20055;-71
2023/06/17 08:35:14;;;;;;;5.40;3.45;;;24.80;96.70;;;;;;4887518;29;20044;-70
2023/06/17 08:37:43;;;;;;;4.03;3.20;;;24.90;96.70;;;;;;4888476;29;20147;-71
2023/06/17 08:40:14;;;;;;;3.42;3.13;;;24.90;96.70;;;;;;4887336;29;20041;-69
2023/06/17 08:42:42;;;;;;;3.10;2.80;;;24.90;96.70;;;;;;4888795;29;20062;-71
2023/06/17 08:45:11;;;;;;;3.45;2.85;;;25.10;96.70;;;;;;4888893;29;20072;-71
2023/06/17 08:47:42;;;;;;;3.63;2.88;;;25.20;96.70;;;;;;4886936;29;20481;-70
2023/06/17 08:50:12;;;;;;;3.90;3.05;;;25.30;96.70;;;;;;4887926;29;20546;-71
2023/06/17 08:52:42;;;;;;;3.50;3.20;;;25.40;96.70;;;;;;4887958;29;20048;-71
2023/06/17 08:55:11;;;;;;;3.53;2.95;;;25.40;96.70;;;;;;4888998;29;20049;-69
2023/06/17 08:57:41;;;;;;;4.47;2.85;;;25.60;96.70;;;;;;4887168;29;20052;-69
2023/06/17 09:00:11;;;;;;;4.43;3.20;;;25.50;96.70;;;;;;4887429;29;20419;-69
2023/06/17 09:02:44;;;;;;;4.05;3.42;;;25.50;96.70;;;;;;4888382;29;20093;-69
2023/06/17 09:05:13;;;;;;;3.30;2.97;;;25.50;96.70;;;;;;4895111;29;20076;-69
2023/06/17 09:07:42;;;;;;;4.90;3.08;;;25.60;96.70;;;;;;4887450;29;20062;-69
2023/06/17 09:10:15;;;;;;;4.03;3.00;;;25.60;96.70;;;;;;4888791;29;20440;-71
2023/06/17 09:12:43;;;;;;;4.72;3.15;;;25.60;96.70;;;;;;4887013;29;20099;-71
2023/06/17 09:15:16;;;;;;;3.53;3.15;;;25.60;96.70;;;;;;4886055;29;20135;-71
2023/06/17 09:17:46;;;;;;;4.63;3.25;;;25.80;96.70;;;;;;4879523;29;20076;-69
2023/06/17 09:20:16;;;;;;;3.47;3.17;;;25.90;96.70;;;;;;4886754;29;20045;-69
2023/06/17 09:22:47;;;;;;;3.75;2.85;;;26.00;96.70;;;;;;4888081;29;20108;-70
2023/06/17 09:25:16;;;;;;;4.72;3.28;;;26.00;96.70;;;;;;4888002;29;20505;-71
2023/06/17 09:27:49;;;;;;;4.40;3.53;;;26.00;96.70;;;;;;4887225;29;20099;-70
2023/06/17 09:30:43;;;;;;;4.07;3.38;;;26.10;96.70;;;;;;4887948;29;20049;-70
2023/06/17 09:33:24;;;;;;;4.15;3.72;;;26.20;96.70;;;;;;4888083;29;20079;-69
2023/06/17 09:35:59;;;;;;;7.05;4.63;;;26.30;96.70;;;;;;4880807;29;20131;-69
2023/06/17 09:38:28;;;;;;;7.35;4.25;;;26.30;96.70;;;;;;4886607;29;20052;-69
2023/06/17 09:40:57;;;;;;;3.80;3.40;;;26.40;96.70;;;;;;4886893;29;20751;-69
2023/06/17 09:43:26;;;;;;;4.43;3.40;;;26.40;96.70;;;;;;4901612;29;20488;-69
2023/06/17 09:45:59;;;;;;;4.65;3.60;;;26.40;96.70;;;;;;4885928;29;20213;-71
2023/06/17 09:48:33;;;;;;;4.07;3.35;;;26.50;96.70;;;;;;4887159;29;20044;-71
2023/06/17 09:51:05;;;;;;;4.75;3.60;;;26.50;96.70;;;;;;4888258;29;20048;-69
2023/06/17 09:53:35;;;;;;;4.15;3.75;;;26.50;96.70;;;;;;4888058;29;20048;-70
2023/06/17 09:56:10;;;;;;;5.35;3.30;;;26.60;96.70;;;;;;4887592;29;20052;-70
2023/06/17 09:58:42;;;;;;;4.20;3.70;;;26.60;96.70;;;;;;4888322;29;20511;-69
2023/06/17 10:01:12;;;;;;;4.40;3.80;;;26.70;96.70;;;;;;4886464;29;20100;-69
2023/06/17 10:03:42;;;;;;;4.65;3.97;;;26.90;96.70;;;;;;4902628;29;20387;-71
2023/06/17 10:06:11;;;;;;;3.97;3.60;;;27.00;96.70;;;;;;4890685;29;20040;-70
2023/06/17 10:08:42;;;;;;;4.60;3.50;;;27.10;96.70;;;;;;4891597;29;20040;-71
2023/06/17 10:11:15;;;;;;;5.72;3.75;;;27.10;96.70;;;;;;4890547;29;20510;-71
2023/06/17 10:13:50;;;;;;;5.07;3.58;;;27.20;96.70;;;;;;4906122;29;20108;-71
2023/06/17 10:16:21;;;;;;;3.72;3.08;;;27.20;96.70;;;;;;4890232;29;20422;-71
2023/06/17 10:18:52;;;;;;;4.15;3.53;;;27.30;96.70;;;;;;4890906;29;20052;-71
2023/06/17 10:21:23;;;;;;;3.92;3.53;;;27.40;96.70;;;;;;4891008;29;20052;-71
2023/06/17 10:24:17;;;;;;;4.72;4.20;;;27.50;96.70;;;;;;4890726;29;20044;-71
2023/06/17 10:26:49;;;;;;;4.65;4.18;;;27.50;96.70;;;;;;4890905;29;20128;-70
2023/06/17 10:29:18;;;;;;;5.35;3.72;;;27.60;96.70;;;;;;4905330;29;20392;-71
2023/06/17 10:31:46;;;;;;;4.43;3.85;;;27.70;96.70;;;;;;4891085;29;20411;-70
2023/06/17 10:34:19;;;;;;;6.30;4.40;;;27.70;96.70;;;;;;4890968;29;20123;-71
2023/06/17 10:36:57;;;;;;;4.28;3.78;;;27.80;96.70;;;;;;4889683;29;20053;-70
2023/06/17 10:39:26;;;;;;;6.85;3.97;;;27.90;96.70;;;;;;4891068;29;20044;-70
2023/06/17 10:41:55;;;;;;;5.10;3.90;;;28.10;96.70;;;;;;4890713;29;20515;-70
2023/06/17 10:44:39;;;;;;;4.85;4.25;;;28.10;96.70;;;;;;4890769;29;20048;-70
2023/06/17 10:47:21;;;;;;;4.03;3.65;;;28.20;96.70;;;;;;4890820;29;20069;-70
2023/06/17 10:49:53;;;;;;;5.88;4.22;;;28.20;96.70;;;;;;4889301;29;20072;-69
2023/06/17 10:52:22;;;;;;;8.15;4.80;;;28.40;96.70;;;;;;4889313;29;20071;-70
2023/06/17 10:54:52;;;;;;;4.68;4.15;;;28.30;96.70;;;;;;4904583;29;20048;-70
2023/06/17 10:57:31;;;;;;;7.50;3.90;;;28.40;96.70;;;;;;4888442;29;20056;-70
2023/06/17 11:00:06;;;;;;;4.03;3.65;;;28.50;96.70;;;;;;4890836;29;20610;-70
2023/06/17 11:02:36;;;;;;;4.13;3.67;;;28.60;96.70;;;;;;4888992;29;20056;-70
2023/06/17 11:05:07;;;;;;;4.97;3.30;;;28.90;96.70;;;;;;4890748;29;20040;-70
2023/06/17 11:07:35;;;;;;;3.70;3.33;;;28.80;96.70;;;;;;4890456;29;20104;-72
2023/06/17 11:10:05;;;;;;;4.13;3.20;;;28.90;96.70;;;;;;4888555;29;20057;-72
2023/06/17 11:12:39;;;;;;;4.70;3.55;;;29.00;96.70;;;;;;4874612;29;20041;-70
2023/06/17 11:15:08;;;;;;;3.63;3.22;;;29.20;96.70;;;;;;4888649;29;20044;-70
2023/06/17 11:17:37;;;;;;;4.82;3.47;;;29.20;96.70;;;;;;4888550;29;20504;-69
2023/06/17 11:20:08;;;;;;;5.53;3.70;;;29.10;96.70;;;;;;4882264;29;20037;-70
2023/06/17 11:22:39;;;;;;;4.63;3.53;;;29.20;96.70;;;;;;4888775;29;20123;-69
2023/06/17 11:25:10;;;;;;;3.90;3.25;;;29.30;96.70;;;;;;4889961;29;20048;-70
2023/06/17 11:27:40;;;;;;;4.43;3.80;;;29.30;96.70;;;;;;4889704;29;20055;-70
2023/06/17 11:30:12;;;;;;;3.50;3.20;;;29.60;96.70;;;;;;4903126;29;20060;-70
2023/06/17 11:32:43;;;;;;;3.75;3.03;;;29.80;96.70;;;;;;4904242;29;20139;-69
2023/06/17 11:35:14;;;;;;;3.85;3.33;;;29.80;96.70;;;;;;4889904;29;20044;-69
2023/06/17 11:37:43;;;;;;;3.80;3.17;;;29.80;96.70;;;;;;4890156;29;20045;-70
2023/06/17 11:40:12;;;;;;;3.85;3.40;;;29.70;96.70;;;;;;4889630;29;20127;-70
2023/06/17 11:42:41;;;;;;;3.53;3.13;;;29.80;96.70;;;;;;4889005;29;20052;-69
2023/06/17 11:45:10;;;;;;;3.55;3.10;;;29.90;96.70;;;;;;4888312;29;20045;-70
2023/06/17 11:47:38;;;;;;;5.13;3.47;;;29.90;96.70;;;;;;4903622;29;20072;-69
2023/06/17 11:50:08;;;;;;;3.78;3.40;;;29.90;96.70;;;;;;4888282;29;20043;-70
2023/06/17 11:52:38;;;;;;;3.45;3.10;;;30.00;96.70;;;;;;4889837;29;20037;-69
2023/06/17 11:55:12;;;;;;;3.28;2.97;;;30.00;96.70;;;;;;4888609;29;20088;-69
2023/06/17 11:57:43;;;;;;;3.35;3.05;;;30.20;96.70;;;;;;4889581;29;20068;-70
2023/06/17 12:00:12;;;;;;;3.05;2.85;;;30.30;96.70;;;;;;4889055;29;20410;-69
2023/06/17 12:02:41;;;;;;;3.25;2.95;;;30.30;96.70;;;;;;4889161;29;20190;-71
2023/06/17 12:05:10;;;;;;;6.47;3.63;;;30.40;96.70;;;;;;4886893;29;20048;-69
2023/06/17 12:07:40;;;;;;;4.78;3.08;;;30.50;96.70;;;;;;4889014;29;20048;-69
2023/06/17 12:10:11;;;;;;;3.75;3.30;;;30.60;96.70;;;;;;4888939;29;20045;-69
2023/06/17 12:12:40;;;;;;;3.33;3.00;;;30.80;96.70;;;;;;4888826;29;20078;-69
2023/06/17 12:15:09;;;;;;;3.30;2.90;;;30.80;96.70;;;;;;4886920;29;20049;-69
2023/06/17 12:17:42;;;;;;;3.80;3.00;;;31.00;96.70;;;;;;4883418;29;20045;-69
2023/06/17 12:20:15;;;;;;;4.03;3.00;;;31.00;96.70;;;;;;4884675;29;20152;-69
2023/06/17 12:22:45;;;;;;;3.85;3.10;;;31.00;96.70;;;;;;4888706;29;20570;-68
2023/06/17 12:25:14;;;;;;;2.95;2.70;;;30.90;96.70;;;;;;4886607;29;20127;-68
2023/06/17 12:27:42;;;;;;;3.00;2.70;;;30.90;96.70;;;;;;4887408;29;20527;-69
2023/06/17 12:30:11;;;;;;;4.95;2.90;;;31.00;96.70;;;;;;4886220;29;20051;-69
2023/06/17 12:32:42;;;;;;;3.38;2.85;;;30.90;96.70;;;;;;4886675;29;20134;-69
2023/06/17 12:35:11;;;;;;;4.65;3.00;;;30.90;96.70;;;;;;4888754;29;20614;-69
2023/06/17 12:37:43;;;;;;;3.42;2.65;;;30.90;96.70;;;;;;4887880;29;20091;-69
2023/06/17 12:40:13;;;;;;;4.40;2.95;;;30.90;96.70;;;;;;4888221;29;20037;-69
2023/06/17 12:42:42;;;;;;;5.75;3.00;;;31.00;96.70;;;;;;4888012;29;20072;-68
2023/06/17 12:45:12;;;;;;;2.92;2.55;;;31.10;96.70;;;;;;4887300;29;20444;-68
2023/06/17 12:47:41;;;;;;;4.43;2.80;;;31.20;96.70;;;;;;4887225;29;20143;-68
2023/06/17 12:50:11;;;;;;;4.05;2.90;;;31.30;96.70;;;;;;4887440;29;20395;-68
2023/06/17 12:52:41;;;;;;;3.85;2.78;;;31.40;96.70;;;;;;4888338;29;20055;-68
2023/06/17 12:55:09;;;;;;;3.75;2.90;;;31.50;96.70;;;;;;4885896;29;20041;-68
2023/06/17 12:57:39;;;;;;;4.75;3.30;;;31.30;96.70;;;;;;4902000;29;20591;-69
2023/06/17 13:00:10;;;;;;;3.28;2.97;;;31.40;96.70;;;;;;4886465;29;20049;-69
2023/06/17 13:02:38;;;;;;;3.25;2.83;;;31.40;96.70;;;;;;4887181;29;20590;-68